»·PEaware :: PH-AVA KCMA-KTOA

PH-AVA :: KCMA-KTOA

FLIGHT INFORMATION

Flight Status: Arrived
Operator: Privately registered:
Netherlands
More flights under this callsign
Pilot: Joost B. (14393)
Aircraft: CESSNA 172 SKYHAWK
(C172)
More flights by this aircraft type
Origin: KCMA Camarillo
United States
Destination: KTOA Zamperini
United States
More flights between these airports :: More routes between these airports
Route: +
File this flight plan on PilotEdge
Remarks: FF / COASTAL
Altitude:
(Current/Filed)
5,500ft
Speed:
(Current/Filed)
0kts
Departed: 12-Nov-17 10:00 AM
Arrived: 12-Nov-17 10:48 AM
Distance/Time
Traveled:
45nm/0:47
Distance/Time
To Go:
Arrived

Flight Plot

Page will automatically refresh every two minutes.


Map Options




Map Legend


Flown Route
Filed Route
Departure Airport
Arrival Airport
Navaid (VOR, NDB)
Fix

Horizontal Profiles

Position Reports

Time Latitude Longitude Heading Altitude Ground
Speed
12-Nov-17 09:50 34.210554 -119.089474 270 81ft 0kts
12-Nov-17 09:51 34.210554 -119.089474 270 81ft 0kts
12-Nov-17 09:52 34.210554 -119.089474 270 81ft 0kts
12-Nov-17 09:53 34.210554 -119.089474 270 81ft 0kts
12-Nov-17 09:54 34.210554 -119.089474 270 81ft 0kts
12-Nov-17 09:55 34.210554 -119.089474 270 81ft 0kts
12-Nov-17 09:56 34.210554 -119.089474 270 81ft 0kts
12-Nov-17 09:57 34.210554 -119.089474 270 81ft 0kts
12-Nov-17 09:58 34.210554 -119.089474 270 81ft 0kts
12-Nov-17 09:59 34.210554 -119.089474 270 81ft 0kts
12-Nov-17 10:00 34.210554 -119.089474 270 81ft 0kts
12-Nov-17 10:01 34.210964 -119.089028 90 81ft 10kts
12-Nov-17 10:02 34.211116 -119.084635 5 81ft 10kts
12-Nov-17 10:03 34.212916 -119.084616 359 81ft 0kts
12-Nov-17 10:04 34.212916 -119.084616 359 81ft 0kts
12-Nov-17 10:05 34.213746 -119.092823 272 233ft 67kts
12-Nov-17 10:06 34.223540 -119.105076 55 987ft 72kts
12-Nov-17 10:07 34.221317 -119.080260 99 1732ft 76kts
12-Nov-17 10:08 34.214895 -119.056083 105 2465ft 75kts
12-Nov-17 10:09 34.206986 -119.032556 113 3167ft 76kts
12-Nov-17 10:10 34.197580 -119.008868 104 3830ft 79kts
12-Nov-17 10:11 34.189783 -118.981550 98 4415ft 88kts
12-Nov-17 10:12 34.181833 -118.953206 106 5004ft 92kts
12-Nov-17 10:13 34.173461 -118.923870 104 5581ft 94kts
12-Nov-17 10:14 34.165674 -118.891410 99 5665ft 111kts
12-Nov-17 10:15 34.157983 -118.854698 103 5621ft 113kts
12-Nov-17 10:16 34.151352 -118.817458 95 5567ft 114kts
12-Nov-17 10:17 34.143849 -118.782313 100 5517ft 115kts
12-Nov-17 10:18 34.139523 -118.747381 88 5485ft 114kts
12-Nov-17 10:19 34.139317 -118.709494 83 5441ft 113kts
12-Nov-17 10:20 34.139398 -118.671570 82 5394ft 113kts
12-Nov-17 10:21 34.140247 -118.639504 89 5402ft 113kts
12-Nov-17 10:22 34.140867 -118.601999 79 5477ft 112kts
12-Nov-17 10:23 34.141474 -118.564225 82 5526ft 113kts
12-Nov-17 10:24 34.141563 -118.528411 124 5542ft 118kts
12-Nov-17 10:25 34.111467 -118.512963 159 5578ft 117kts
12-Nov-17 10:26 34.079787 -118.503244 162 5597ft 119kts
12-Nov-17 10:27 34.049235 -118.489856 151 5603ft 115kts
12-Nov-17 10:28 34.021403 -118.470927 155 5568ft 117kts
12-Nov-17 10:29 33.991089 -118.457727 165 5555ft 117kts
12-Nov-17 10:30 33.968975 -118.450503 162 5558ft 116kts
12-Nov-17 10:31 33.941202 -118.435803 153 5541ft 116kts
12-Nov-17 10:32 33.913525 -118.417721 151 5531ft 116kts
12-Nov-17 10:33 33.888144 -118.398150 130 5539ft 114kts
12-Nov-17 10:34 33.867589 -118.369515 127 5530ft 114kts
12-Nov-17 10:35 33.849151 -118.346024 138 5522ft 114kts
12-Nov-17 10:36 33.827872 -118.325313 143 5163ft 116kts
12-Nov-17 10:37 33.803388 -118.300798 131 4667ft 113kts
12-Nov-17 10:38 33.781269 -118.276696 137 4208ft 112kts
12-Nov-17 10:39 33.755015 -118.257871 163 3737ft 112kts
12-Nov-17 10:40 33.724581 -118.260686 210 3288ft 111kts
12-Nov-17 10:41 33.718048 -118.291487 299 2939ft 100kts
12-Nov-17 10:42 33.733998 -118.318343 316 2889ft 98kts
12-Nov-17 10:43 33.751380 -118.343569 316 3045ft 97kts
12-Nov-17 10:44 33.771625 -118.365391 316 3160ft 98kts
12-Nov-17 10:45 33.791715 -118.388283 321 3177ft 102kts
12-Nov-17 10:46 33.813257 -118.410298 321 3221ft 101kts
12-Nov-17 10:47 33.837555 -118.425532 7 3227ft 102kts
12-Nov-17 10:48 33.831601 -118.399592 138 2898ft 115kts
12-Nov-17 10:49 33.807391 -118.376762 134 2304ft 113kts
12-Nov-17 10:50 33.789196 -118.345276 124 1292ft 112kts
12-Nov-17 10:51 33.784868 -118.319927 25 704ft 75kts
12-Nov-17 10:52 33.799985 -118.333491 312 145ft 66kts
12-Nov-17 10:53 33.805797 -118.343499 290 98ft 19kts
12-Nov-17 10:54 33.805915 -118.343904 288 98ft 0kts
12-Nov-17 10:55 33.804603 -118.345939 41 98ft 0kts
12-Nov-17 10:56 33.804603 -118.345939 41 98ft 0kts

Navigation Log

Ident Type
1. KCMA Airport
2. KTOA Airport